createdAt,value
2019-03-04T00:01:10.624Z,98029.20
2019-03-04T00:03:40.551Z,98019.52
2019-03-04T00:06:10.440Z,98027.37
2019-03-04T00:08:40.264Z,98032.77
2019-03-04T00:11:11.578Z,98017.78
2019-03-04T00:13:41.437Z,98011.17
2019-03-04T00:16:11.406Z,97993.34
2019-03-04T00:18:41.414Z,97970.19
2019-03-04T00:21:11.323Z,97976.48
2019-03-04T00:23:41.158Z,97967.59
2019-03-04T00:26:11.052Z,97959.20
2019-03-04T00:28:40.934Z,97954.23
2019-03-04T00:31:10.957Z,97943.16
2019-03-04T00:33:40.848Z,97946.00
2019-03-04T00:36:10.936Z,97940.21
2019-03-04T00:38:40.942Z,97928.92
2019-03-04T00:41:10.894Z,97927.36
2019-03-04T00:43:40.959Z,97940.23
2019-03-04T00:46:11.300Z,97940.44
2019-03-04T00:48:41.194Z,97952.27
2019-03-04T00:51:11.062Z,97959.92
2019-03-04T00:53:40.937Z,97967.54
2019-03-04T00:56:10.800Z,97975.66
2019-03-04T00:58:40.739Z,97971.75
2019-03-04T01:01:10.783Z,97972.52
2019-03-04T01:03:40.981Z,97975.44
2019-03-04T01:06:10.921Z,97961.34
2019-03-04T01:08:40.881Z,97961.70
2019-03-04T01:11:10.763Z,97950.16
2019-03-04T01:13:40.626Z,97971.49
2019-03-04T01:16:10.678Z,97960.47
2019-03-04T01:18:40.525Z,97946.31
2019-03-04T01:21:10.416Z,97919.80
2019-03-04T01:23:40.799Z,97923.23
2019-03-04T01:26:10.715Z,97922.70
2019-03-04T01:28:40.595Z,97906.40
2019-03-04T01:31:10.579Z,97907.98
2019-03-04T01:33:40.821Z,97906.44
2019-03-04T01:36:10.684Z,97902.21
2019-03-04T01:38:40.628Z,97902.23
2019-03-04T01:41:10.513Z,97905.11
2019-03-04T01:43:40.367Z,97894.86
2019-03-04T01:46:10.268Z,97885.92
2019-03-04T01:48:40.183Z,97880.13
2019-03-04T01:51:11.107Z,97859.90
2019-03-04T01:53:41.037Z,97855.17
2019-03-04T01:56:10.892Z,97849.38
2019-03-04T01:58:40.816Z,97855.97
2019-03-04T02:01:10.780Z,97850.95
2019-03-04T02:03:40.659Z,97839.39
2019-03-04T02:06:10.702Z,97832.30
2019-03-04T02:08:40.520Z,97813.13
2019-03-04T02:11:11.119Z,97812.08
2019-03-04T02:13:41.101Z,97804.70
2019-03-04T02:16:10.943Z,97792.11
2019-03-04T02:18:40.795Z,97786.08
2019-03-04T02:21:10.846Z,97776.35
2019-03-04T02:23:41.336Z,97758.74
2019-03-04T02:26:18.362Z,97768.19
2019-03-04T02:28:48.268Z,97759.52
2019-03-04T02:31:18.878Z,97761.90
2019-03-04T02:33:48.696Z,97748.74
2019-03-04T02:36:18.979Z,97746.11
2019-03-04T02:38:49.942Z,97740.59
2019-03-04T02:41:19.785Z,97736.66
2019-03-04T02:43:49.701Z,97725.62
2019-03-04T02:46:19.796Z,97730.33
2019-03-04T02:48:49.744Z,97722.67
2019-03-04T02:51:19.580Z,97729.23
2019-03-04T02:53:49.522Z,97734.45
2019-03-04T02:56:19.377Z,97743.12
2019-03-04T02:58:49.283Z,97734.39
2019-03-04T03:01:19.311Z,97725.66
2019-03-04T03:03:49.908Z,97732.77
2019-03-04T03:06:20.275Z,97725.13
2019-03-04T03:08:50.795Z,97724.40
2019-03-04T03:11:21.071Z,97728.34
2019-03-04T03:13:51.050Z,97719.95
2019-03-04T03:16:20.857Z,97724.42
2019-03-04T03:18:51.331Z,97717.65
2019-03-04T03:21:21.250Z,97701.91
2019-03-04T03:23:52.712Z,97699.74
2019-03-04T03:26:22.602Z,97698.17
2019-03-04T03:28:52.648Z,97680.31
2019-03-04T03:31:23.131Z,97684.53
2019-03-04T03:33:53.103Z,97685.28
2019-03-04T03:36:22.978Z,97681.08
2019-03-04T03:38:52.875Z,97671.32
2019-03-04T03:41:23.026Z,97648.41
2019-03-04T03:43:52.995Z,97636.88
2019-03-04T03:46:24.072Z,97620.23
2019-03-04T03:48:53.993Z,97603.41
2019-03-04T03:51:23.852Z,97601.83
2019-03-04T03:53:53.873Z,97606.78
2019-03-04T03:56:23.986Z,97610.20
2019-03-04T03:58:53.956Z,97603.41
2019-03-04T04:01:24.078Z,97601.33
2019-03-04T04:03:54.050Z,97626.02
2019-03-04T04:06:25.406Z,97596.38
2019-03-04T04:08:55.353Z,97602.65
2019-03-04T04:11:25.522Z,97613.36
2019-03-04T04:13:55.455Z,97623.36
2019-03-04T04:16:26.932Z,97608.86
2019-03-04T04:18:56.778Z,97594.69
2019-03-04T04:21:26.862Z,97580.92
2019-03-04T04:23:56.779Z,97606.83
2019-03-04T04:26:26.744Z,97608.89
2019-03-04T04:29:11.314Z,97593.37
2019-03-04T04:31:41.559Z,97590.81
2019-03-04T04:34:11.479Z,97511.92
2019-03-04T04:36:41.337Z,97580.55
2019-03-04T04:39:11.691Z,97569.78
2019-03-04T04:41:41.504Z,97560.56
2019-03-04T04:44:11.364Z,97551.59
2019-03-04T04:47:10.313Z,97537.87
2019-03-04T04:49:40.514Z,97526.30
2019-03-04T04:52:10.363Z,97529.19
2019-03-04T04:54:40.451Z,97517.27
2019-03-04T04:57:10.667Z,97521.73
2019-03-04T04:59:40.769Z,97525.73
2019-03-04T05:02:10.827Z,97513.41
2019-03-04T05:04:40.762Z,97490.04
2019-03-04T05:07:10.889Z,97495.77
2019-03-04T05:09:40.714Z,97487.95
2019-03-04T05:12:10.823Z,97490.52
2019-03-04T05:14:40.638Z,97484.70
2019-03-04T05:17:10.661Z,97490.58
2019-03-04T05:19:41.087Z,97498.47
2019-03-04T05:22:11.003Z,97505.08
2019-03-04T05:24:40.893Z,97493.25
2019-03-04T05:27:10.817Z,97498.81
2019-03-04T05:29:40.818Z,97517.97
2019-03-04T05:32:10.870Z,97507.53
2019-03-04T05:34:40.931Z,97511.78
2019-03-04T05:37:11.081Z,97508.14
2019-03-04T05:39:40.957Z,97497.31
2019-03-04T05:42:10.840Z,97500.44
2019-03-04T05:44:40.747Z,97486.67
2019-03-04T05:47:11.718Z,97488.78
2019-03-04T05:49:41.591Z,97446.17
2019-03-04T05:52:11.454Z,97463.27
2019-03-04T05:54:41.809Z,97456.95
2019-03-04T05:57:11.932Z,97443.75
2019-03-04T05:59:42.331Z,97455.11
2019-03-04T06:02:13.151Z,97433.86
2019-03-04T06:04:44.992Z,97425.67
2019-03-04T06:07:45.670Z,97425.13
2019-03-04T06:10:16.111Z,97391.89
2019-03-04T06:12:46.057Z,97377.67
2019-03-04T06:15:17.590Z,97293.15
2019-03-04T06:17:48.325Z,97357.05
2019-03-04T06:20:18.990Z,97349.92
2019-03-04T06:22:48.938Z,97336.27
2019-03-04T06:25:20.947Z,97327.82
2019-03-04T06:27:53.683Z,97312.48
2019-03-04T06:30:27.757Z,97303.58
2019-03-04T06:32:57.863Z,97316.73
2019-03-04T06:35:27.918Z,97245.52
2019-03-04T06:37:57.935Z,97289.16
2019-03-04T06:40:28.082Z,97283.55
2019-03-04T06:42:58.122Z,97275.95
2019-03-04T06:45:28.113Z,97263.81
2019-03-04T06:47:58.031Z,97261.41
2019-03-04T06:50:49.276Z,97266.81
2019-03-04T06:53:46.102Z,97247.08
2019-03-04T06:56:48.071Z,97235.30
2019-03-04T06:59:41.694Z,97231.43
2019-03-04T07:02:13.522Z,97228.27
2019-03-04T07:05:03.723Z,97221.48
2019-03-04T07:07:34.050Z,97224.78
2019-03-04T07:10:04.448Z,97178.00
2019-03-04T07:12:34.456Z,97169.27
2019-03-04T07:15:04.767Z,97176.37
2019-03-04T07:17:35.516Z,97172.93
2019-03-04T07:20:09.828Z,97164.39
2019-03-04T07:22:39.770Z,97165.50
2019-03-04T07:25:10.052Z,97106.14
2019-03-04T07:27:40.523Z,97181.09
2019-03-04T07:30:12.270Z,97179.34
2019-03-04T07:32:42.436Z,97187.68
2019-03-04T07:35:12.491Z,97138.70
2019-03-04T07:37:42.647Z,97212.47
2019-03-04T07:40:13.622Z,97200.42
2019-03-04T07:42:43.554Z,97218.36
2019-03-04T07:45:13.716Z,97209.07
2019-03-04T07:47:48.816Z,97217.30
2019-03-04T07:50:19.019Z,97234.78
2019-03-04T07:52:56.337Z,97223.64
2019-03-04T07:55:26.535Z,97217.92
2019-03-04T07:57:56.410Z,97239.86
2019-03-04T08:00:26.758Z,97243.90
2019-03-04T08:02:57.012Z,97250.91
2019-03-04T08:05:27.254Z,97175.36
2019-03-04T08:07:57.364Z,97272.45
2019-03-04T08:11:02.924Z,97268.76
2019-03-04T08:13:37.254Z,97278.82
2019-03-04T08:16:07.467Z,97282.85
2019-03-04T08:18:37.594Z,97252.45
2019-03-04T08:21:07.670Z,97201.09
2019-03-04T08:23:37.512Z,97171.13
2019-03-04T08:26:09.201Z,97159.23
2019-03-04T08:28:39.163Z,97191.39
2019-03-04T08:31:09.285Z,97179.19
2019-03-04T08:33:39.628Z,97153.59
2019-03-04T08:36:09.557Z,97098.81
2019-03-04T08:38:39.649Z,97074.41
2019-03-04T08:41:10.302Z,97073.32
2019-03-04T08:43:40.567Z,97054.91
2019-03-04T08:46:11.541Z,97067.22
2019-03-04T08:48:42.325Z,97086.66
2019-03-04T08:51:12.223Z,97104.91
2019-03-04T08:53:42.510Z,97119.20
2019-03-04T08:56:12.841Z,97084.65
2019-03-04T08:58:47.958Z,96999.03
2019-03-04T09:01:18.655Z,97114.05
2019-03-04T09:03:48.651Z,97103.31
2019-03-04T09:06:18.880Z,97111.30
2019-03-04T09:08:48.904Z,97090.06
2019-03-04T09:11:19.202Z,97039.80
2019-03-04T09:13:49.187Z,96994.83
2019-03-04T09:16:20.071Z,97081.45
2019-03-04T09:18:50.282Z,97027.41
2019-03-04T09:21:22.249Z,97020.98
2019-03-04T09:23:52.170Z,97065.13
2019-03-04T09:26:22.231Z,97056.50
2019-03-04T09:28:52.717Z,97066.19
2019-03-04T09:31:22.732Z,97069.32
2019-03-04T09:33:52.714Z,97063.69
2019-03-04T09:36:22.707Z,97071.20
2019-03-04T09:38:52.842Z,97063.67
2019-03-04T09:41:23.171Z,97064.36
2019-03-04T09:43:53.424Z,97097.05
2019-03-04T09:46:23.963Z,97063.55
2019-03-04T09:48:54.427Z,97050.14
2019-03-04T09:51:25.083Z,97038.87
2019-03-04T09:53:55.505Z,97061.59
2019-03-04T09:56:25.501Z,97040.61
2019-03-04T09:58:56.169Z,97067.97
2019-03-04T10:01:42.885Z,97064.97
2019-03-04T10:04:58.568Z,97064.23
2019-03-04T10:08:32.577Z,97071.20
2019-03-04T10:11:04.275Z,97099.47
2019-03-04T10:13:45.115Z,97073.44
2019-03-04T10:16:27.197Z,97096.78
2019-03-04T10:19:20.359Z,97095.22
2019-03-04T10:22:18.135Z,97075.94
2019-03-04T10:24:46.106Z,97065.83
2019-03-04T10:28:12.218Z,97094.71
2019-03-04T10:31:15.657Z,97126.11
2019-03-04T10:34:17.079Z,97083.17
2019-03-04T10:37:12.154Z,97255.09
2019-03-04T10:40:01.632Z,97257.47
2019-03-04T10:43:15.907Z,97296.25
2019-03-04T10:46:16.106Z,97279.31
2019-03-04T10:48:46.691Z,97174.11
2019-03-04T10:51:18.798Z,97305.81
2019-03-04T10:53:52.542Z,97268.06
2019-03-04T10:56:22.802Z,97236.10
2019-03-04T10:58:52.957Z,97241.30
2019-03-04T11:01:30.328Z,97239.48
2019-03-04T11:03:56.663Z,97235.72
2019-03-04T11:06:29.528Z,97223.75
2019-03-04T11:09:01.327Z,97215.80
2019-03-04T11:11:31.340Z,97211.14
2019-03-04T11:14:01.625Z,97213.14
2019-03-04T11:16:31.770Z,97216.98
2019-03-04T11:19:01.727Z,97196.91
2019-03-04T11:21:31.816Z,97142.35
2019-03-04T11:24:02.457Z,97220.92
2019-03-04T11:26:32.455Z,97217.41
2019-03-04T11:29:03.630Z,97237.00
2019-03-04T11:31:34.090Z,97221.86
2019-03-04T11:34:05.160Z,97201.30
2019-03-04T11:36:35.309Z,97199.69
2019-03-04T11:40:03.577Z,97186.29
2019-03-04T11:42:33.821Z,97192.03
2019-03-04T11:45:04.691Z,97192.81
2019-03-04T11:47:34.886Z,97202.08
2019-03-04T11:50:06.275Z,97195.28
2019-03-04T11:52:36.454Z,97164.38
2019-03-04T11:55:07.677Z,97197.83
2019-03-04T11:57:38.186Z,97158.16
2019-03-04T12:00:16.535Z,97161.07
2019-03-04T12:02:48.017Z,97156.72
2019-03-04T12:05:18.245Z,97172.94
2019-03-04T12:07:48.952Z,97163.07
2019-03-04T12:10:19.327Z,97153.62
2019-03-04T12:12:49.288Z,97151.20
2019-03-04T12:15:19.582Z,97146.03
2019-03-04T12:17:50.369Z,97128.56
2019-03-04T12:20:25.240Z,97126.86
2019-03-04T12:22:55.725Z,97120.91
2019-03-04T12:25:25.740Z,97104.41
2019-03-04T12:27:57.091Z,97111.69
2019-03-04T12:30:27.427Z,97126.62
2019-03-04T12:32:57.459Z,97120.91
2019-03-04T12:35:27.649Z,97097.53
2019-03-04T12:37:57.875Z,97102.75
2019-03-04T12:40:28.207Z,97080.74
2019-03-04T12:42:58.538Z,97019.92
2019-03-04T12:45:34.502Z,97056.02
2019-03-04T12:48:02.993Z,97066.45
2019-03-04T12:50:34.969Z,97054.52
2019-03-04T12:53:05.432Z,97055.70
2019-03-04T12:55:35.833Z,97060.23
2019-03-04T12:58:07.546Z,97059.51
2019-03-04T13:00:38.457Z,97066.75
2019-03-04T13:03:18.679Z,97046.26
2019-03-04T13:05:49.263Z,97062.66
2019-03-04T13:08:19.330Z,97088.52
2019-03-04T13:10:49.682Z,97078.66
2019-03-04T13:13:20.212Z,97066.48
2019-03-04T13:15:51.754Z,97084.77
2019-03-04T13:18:22.098Z,97083.81
2019-03-04T13:20:55.023Z,97094.80
2019-03-04T13:23:26.667Z,97054.17
2019-03-04T13:25:56.798Z,97073.36
2019-03-04T13:28:26.827Z,97083.91
2019-03-04T13:30:57.343Z,97061.39
2019-03-04T13:33:27.641Z,97066.86
2019-03-04T13:35:58.017Z,97067.33
2019-03-04T13:38:28.523Z,97068.31
2019-03-04T13:41:06.275Z,97054.75
2019-03-04T13:43:37.103Z,97069.88
2019-03-04T13:46:07.515Z,97047.48
2019-03-04T13:48:44.175Z,97036.34
2019-03-04T13:51:15.150Z,97045.63
2019-03-04T13:53:46.618Z,97031.06
2019-03-04T13:56:16.605Z,97038.49
2019-03-04T13:58:47.664Z,97016.09
2019-03-04T14:01:17.940Z,97028.66
2019-03-04T14:03:48.440Z,97026.82
2019-03-04T14:06:18.507Z,97051.75
2019-03-04T14:08:49.117Z,97071.80
2019-03-04T14:11:23.278Z,97070.08
2019-03-04T14:13:53.727Z,96992.43
2019-03-04T14:16:23.931Z,97064.03
2019-03-04T14:18:55.690Z,97072.30
2019-03-04T14:21:29.097Z,97098.60
2019-03-04T14:24:01.068Z,97106.92
2019-03-04T14:26:31.434Z,97095.89
2019-03-04T14:29:03.804Z,97076.45
2019-03-04T14:31:34.084Z,97075.77
2019-03-04T14:34:04.316Z,97091.66
2019-03-04T14:36:34.723Z,97105.89
2019-03-04T14:39:06.930Z,97135.31
2019-03-04T14:41:37.500Z,97116.67
2019-03-04T14:44:07.902Z,97128.66
2019-03-04T14:46:38.120Z,97176.97
2019-03-04T14:49:08.719Z,97172.96
2019-03-04T14:51:39.234Z,97159.48
2019-03-04T14:54:09.285Z,97146.06
2019-03-04T14:56:42.991Z,97155.67
2019-03-04T14:59:14.871Z,97165.62
2019-03-04T15:01:44.901Z,97151.73
2019-03-04T15:04:15.250Z,97169.50
2019-03-04T15:06:45.923Z,97171.52
2019-03-04T15:09:16.617Z,97138.43
2019-03-04T15:11:46.881Z,97142.78
2019-03-04T15:14:17.019Z,97149.08
2019-03-04T15:16:47.269Z,97162.97
2019-03-04T15:19:19.927Z,97158.96
2019-03-04T15:21:52.999Z,97169.53
2019-03-04T15:24:28.498Z,97158.70
2019-03-04T15:26:58.589Z,97165.27
2019-03-04T15:29:30.231Z,97171.39
2019-03-04T15:32:01.052Z,97186.73
2019-03-04T15:34:34.521Z,97186.37
2019-03-04T15:37:10.511Z,97175.64
2019-03-04T15:39:41.588Z,97187.19
2019-03-04T15:42:12.788Z,97199.59
2019-03-04T15:44:44.828Z,97209.22
2019-03-04T15:47:15.722Z,97125.88
2019-03-04T15:49:46.198Z,97216.82
2019-03-04T15:52:17.628Z,97209.17
2019-03-04T15:54:49.102Z,97232.93
2019-03-04T15:57:20.685Z,97259.68
2019-03-04T15:59:54.487Z,97267.39
2019-03-04T16:02:25.689Z,97300.55
2019-03-04T16:04:57.210Z,97310.52
2019-03-04T16:07:27.628Z,97366.86
2019-03-04T16:10:02.830Z,97396.73
2019-03-04T16:12:37.537Z,97415.55
2019-03-04T16:15:10.970Z,97452.48
2019-03-04T16:17:42.989Z,97447.86
2019-03-04T16:20:16.236Z,97456.16
2019-03-04T16:22:47.105Z,97478.47
2019-03-04T16:25:18.615Z,97458.34
2019-03-04T16:27:52.834Z,97470.72
2019-03-04T16:30:23.856Z,97384.98
2019-03-04T16:32:55.088Z,97470.97
2019-03-04T16:35:30.259Z,97470.30
2019-03-04T16:38:17.930Z,97466.02
2019-03-04T16:40:48.600Z,97459.75
2019-03-04T16:43:19.743Z,97467.51
2019-03-04T16:45:51.332Z,97461.45
2019-03-04T16:48:22.038Z,97458.91
2019-03-04T16:50:53.704Z,97468.61
2019-03-04T16:53:26.776Z,97461.73
2019-03-04T16:55:57.229Z,97453.11
2019-03-04T16:58:27.408Z,97457.94
2019-03-04T17:00:59.110Z,97387.52
2019-03-04T17:03:29.364Z,97471.13
2019-03-04T17:05:59.474Z,97480.70
2019-03-04T17:08:31.396Z,97482.73
2019-03-04T17:11:02.333Z,97498.63
2019-03-04T17:13:33.200Z,97508.80
2019-03-04T17:16:04.454Z,97510.01
2019-03-04T17:18:35.026Z,97533.20
2019-03-04T17:21:08.497Z,97534.59
2019-03-04T17:23:39.385Z,97533.23
2019-03-04T17:26:09.937Z,97550.01
2019-03-04T17:28:40.625Z,97545.09
2019-03-04T17:31:13.271Z,97477.23
2019-03-04T17:33:45.722Z,97578.34
2019-03-04T17:36:15.961Z,97593.06
2019-03-04T17:38:46.061Z,97587.89
2019-03-04T17:41:16.432Z,97579.86
2019-03-04T17:43:46.600Z,97586.18
2019-03-04T17:46:19.863Z,97587.35
2019-03-04T17:48:50.611Z,97590.36
2019-03-04T17:51:24.414Z,97595.78
2019-03-04T17:53:54.513Z,97602.47
2019-03-04T17:56:26.045Z,97603.72
2019-03-04T17:58:59.744Z,97600.75
2019-03-04T18:01:32.569Z,97605.97
2019-03-04T18:04:03.133Z,97610.36
2019-03-04T18:06:36.159Z,97629.58
2019-03-04T18:09:08.162Z,97627.88
2019-03-04T18:11:42.294Z,97633.58
2019-03-04T18:14:12.824Z,97640.19
2019-03-04T18:16:42.928Z,97646.19
2019-03-04T18:19:14.605Z,97655.15
2019-03-04T18:21:44.767Z,97642.45
2019-03-04T18:24:15.723Z,97648.61
2019-03-04T18:27:07.076Z,97636.64
2019-03-04T18:29:52.984Z,97649.91
2019-03-04T18:33:11.436Z,97653.81
2019-03-04T18:36:09.730Z,97662.42
2019-03-04T18:39:34.554Z,97670.48
2019-03-04T18:42:49.031Z,97681.83
2019-03-04T18:45:49.034Z,97679.34
2019-03-04T18:51:17.097Z,97696.30
2019-03-04T18:53:53.021Z,97706.17
2019-03-04T18:56:36.197Z,97708.91
2019-03-04T18:59:10.116Z,97718.02
2019-03-04T19:01:43.376Z,97716.41
2019-03-04T19:04:15.098Z,97730.09
2019-03-04T19:06:46.358Z,97737.30
2019-03-04T19:09:17.802Z,97743.31
2019-03-04T19:11:49.840Z,97743.21
2019-03-04T19:14:27.714Z,97739.24
2019-03-04T19:16:59.296Z,97752.65
2019-03-04T19:19:53.619Z,97752.36
2019-03-04T19:22:40.238Z,97759.67
2019-03-04T19:25:33.047Z,97765.86
2019-03-04T19:28:04.641Z,97774.48
2019-03-04T19:30:35.660Z,97776.33
2019-03-04T19:33:06.313Z,97776.62
2019-03-04T19:35:36.991Z,97776.72
2019-03-04T19:38:07.699Z,97778.59
2019-03-04T19:40:39.301Z,97780.50
2019-03-04T19:43:09.801Z,97780.41
2019-03-04T19:45:39.942Z,97783.31
2019-03-04T19:48:10.873Z,97789.74
2019-03-04T19:53:10.906Z,97793.88
2019-03-04T19:55:41.426Z,97795.31
2019-03-04T19:58:11.487Z,97792.11
2019-03-04T20:00:42.500Z,97802.33
2019-03-04T20:03:13.129Z,97803.55
2019-03-04T20:05:43.812Z,97806.86
2019-03-04T20:08:14.624Z,97803.02
2019-03-04T20:10:44.690Z,97808.13
2019-03-04T20:13:16.095Z,97806.17
2019-03-04T20:15:46.354Z,97810.77
2019-03-04T20:18:17.779Z,97817.78
2019-03-04T20:20:48.162Z,97818.08
2019-03-04T20:23:20.860Z,97820.45
2019-03-04T20:25:54.375Z,97820.16
2019-03-04T20:28:26.461Z,97822.30
2019-03-04T20:30:57.546Z,97825.41
2019-03-04T20:33:28.426Z,97837.13
2019-03-04T20:35:58.808Z,97843.27
2019-03-04T20:38:33.672Z,97846.38
2019-03-04T20:41:04.363Z,97853.16
2019-03-04T20:43:34.809Z,97854.38
2019-03-04T20:46:10.442Z,97856.06
2019-03-04T20:48:40.430Z,97800.53
2019-03-04T20:51:11.540Z,97868.72
2019-03-04T20:53:42.046Z,97870.53
2019-03-04T20:56:12.367Z,97870.53
2019-03-04T20:58:42.936Z,97878.98
2019-03-04T21:01:13.379Z,97881.59
2019-03-04T21:03:43.410Z,97881.59
2019-03-04T21:06:14.124Z,97879.23
2019-03-04T21:08:44.425Z,97899.56
2019-03-04T21:11:15.704Z,97893.83
2019-03-04T21:13:45.964Z,97896.70
2019-03-04T21:16:16.155Z,97903.50
2019-03-04T21:18:47.330Z,97903.54
2019-03-04T21:21:18.385Z,97905.42
2019-03-04T21:23:48.702Z,97901.05
2019-03-04T21:26:30.264Z,97821.63
2019-03-04T21:29:30.326Z,97901.02
2019-03-04T21:32:25.795Z,97901.31
2019-03-04T21:35:35.683Z,97909.81
2019-03-04T21:38:06.454Z,97910.63
2019-03-04T21:40:43.464Z,97910.63
2019-03-04T21:43:18.612Z,97920.95
2019-03-04T21:46:36.386Z,97926.48
2019-03-04T21:49:09.453Z,97847.69
2019-03-04T21:52:26.443Z,97941.46
2019-03-04T21:54:56.972Z,97949.03
2019-03-04T21:57:38.509Z,97947.11
2019-03-04T22:00:16.976Z,97955.61
2019-03-04T22:02:50.508Z,97963.64
2019-03-04T22:05:21.199Z,97961.04
2019-03-04T22:07:55.175Z,97971.92
2019-03-04T22:10:27.383Z,97963.23
2019-03-04T22:12:58.436Z,97976.66
2019-03-04T22:15:32.449Z,97974.17
2019-03-04T22:18:06.405Z,97986.94
2019-03-04T22:20:38.171Z,97982.56
2019-03-04T22:23:11.969Z,97981.67
2019-03-04T22:25:41.985Z,97984.95
2019-03-04T22:28:13.185Z,97974.75
2019-03-04T22:30:43.284Z,97979.53
2019-03-04T22:33:14.339Z,97980.36
2019-03-04T22:35:44.498Z,97980.08
2019-03-04T22:38:14.877Z,97994.11
2019-03-04T22:40:45.012Z,97984.85
2019-03-04T22:43:15.755Z,97992.59
2019-03-04T22:45:45.988Z,97980.98
2019-03-04T22:48:16.300Z,97983.38
2019-03-04T22:50:46.501Z,97981.87
2019-03-04T22:53:16.585Z,97984.05
2019-03-04T22:55:48.228Z,97969.31
2019-03-04T22:58:28.170Z,97971.16
2019-03-04T23:01:29.146Z,97894.98
2019-03-04T23:04:34.894Z,97973.22
2019-03-04T23:07:11.495Z,97979.48
2019-03-04T23:10:18.004Z,97992.80
2019-03-04T23:12:50.070Z,97991.86
2019-03-04T23:15:24.031Z,97997.19
2019-03-04T23:17:54.603Z,97982.05
2019-03-04T23:20:27.587Z,97991.14
2019-03-04T23:23:00.541Z,97995.98
2019-03-04T23:25:34.247Z,97988.55
2019-03-04T23:28:05.758Z,97988.23
2019-03-04T23:30:37.946Z,97976.73
2019-03-04T23:33:08.243Z,97970.22
2019-03-04T23:35:38.589Z,97967.73
2019-03-04T23:38:09.051Z,97964.44
2019-03-04T23:40:40.021Z,97975.22
2019-03-04T23:43:10.642Z,97965.56
2019-03-04T23:45:41.505Z,97957.59
2019-03-04T23:48:11.695Z,97952.17
2019-03-04T23:50:41.997Z,97949.67
2019-03-04T23:53:12.071Z,97945.27
2019-03-04T23:55:42.014Z,97943.00
2019-03-04T23:58:12.292Z,97933.45
